Time;durP1;ratioP1;P1;durP2;ratioP2;P2;SDS_P1;SDS_P2;PMS_P1;PMS_P2;Temp;Humidity;BMP_temperature;BMP_pressure;BME280_temperature;BME280_humidity;BME280_pressure;Samples;Min_cycle;Max_cycle;Signal;HPM_P1;HPM_P2
2023/03/30 00:01:10;;;;;;;11.43;1.85;;;;;;;;;;5989918;23;20035;-79
2023/03/30 00:03:39;;;;;;;6.65;1.88;;;;;;;;;;5968935;23;20027;-79
2023/03/30 00:06:07;;;;;;;7.10;2.17;;;;;;;;;;5968139;23;20043;-80
2023/03/30 00:08:34;;;;;;;6.43;1.65;;;;;;;;;;5969414;23;20086;-80
2023/03/30 00:11:04;;;;;;;7.90;1.95;;;;;;;;;;5968001;23;20031;-80
2023/03/30 00:13:33;;;;;;;6.88;1.75;;;;;;;;;;5968148;23;20023;-78
2023/03/30 00:16:00;;;;;;;11.93;2.53;;;;;;;;;;5966800;23;20023;-79
2023/03/30 00:18:28;;;;;;;5.70;1.88;;;;;;;;;;5966586;23;20031;-79
2023/03/30 00:20:57;;;;;;;7.32;1.92;;;;;;;;;;5966939;23;20027;-78
2023/03/30 00:23:24;;;;;;;9.95;2.03;;;;;;;;;;5966909;23;20034;-79
2023/03/30 00:25:51;;;;;;;10.38;1.88;;;;;;;;;;5966205;23;20023;-78
2023/03/30 00:28:17;;;;;;;13.30;2.83;;;;;;;;;;5967538;23;20023;-80
2023/03/30 00:30:45;;;;;;;9.63;2.05;;;;;;;;;;5966526;23;20023;-77
2023/03/30 00:33:12;;;;;;;10.00;2.05;;;;;;;;;;5965887;23;20019;-78
2023/03/30 00:35:39;;;;;;;12.10;2.63;;;;;;;;;;5965455;23;20098;-77
2023/03/30 00:38:06;;;;;;;9.98;1.67;;;;;;;;;;5988662;23;20062;-78
2023/03/30 00:40:33;;;;;;;10.10;1.90;;;;;;;;;;5965327;23;20030;-78
2023/03/30 00:43:02;;;;;;;8.55;1.70;;;;;;;;;;5965977;23;20030;-78
2023/03/30 00:45:30;;;;;;;7.95;1.75;;;;;;;;;;5965080;23;20020;-78
2023/03/30 00:48:08;;;;;;;10.27;2.65;;;;;;;;;;5968000;23;20477;-78
2023/03/30 00:50:37;;;;;;;5.82;2.03;;;;;;;;;;5966415;23;20042;-78
2023/03/30 00:53:08;;;;;;;9.63;1.85;;;;;;;;;;5971736;23;20019;-79
2023/03/30 00:55:37;;;;;;;10.13;2.70;;;;;;;;;;5976359;23;20055;-79
2023/03/30 00:58:05;;;;;;;6.53;2.15;;;;;;;;;;5972644;23;20094;-80
2023/03/30 01:00:33;;;;;;;11.32;2.00;;;;;;;;;;5966811;23;20033;-79
2023/03/30 01:03:02;;;;;;;6.97;2.03;;;;;;;;;;5966907;23;20517;-79
2023/03/30 01:05:28;;;;;;;9.70;1.75;;;;;;;;;;5968103;23;20028;-80
2023/03/30 01:07:56;;;;;;;7.95;2.05;;;;;;;;;;5969101;23;20051;-80
2023/03/30 01:10:23;;;;;;;11.25;1.80;;;;;;;;;;5968654;23;20026;-80
2023/03/30 01:12:50;;;;;;;12.55;2.53;;;;;;;;;;5968462;23;20024;-80
2023/03/30 01:15:17;;;;;;;8.63;2.60;;;;;;;;;;5989957;23;20110;-78
2023/03/30 01:17:56;;;;;;;9.32;1.90;;;;;;;;;;5966292;23;20034;-78
2023/03/30 01:20:45;;;;;;;11.73;2.28;;;;;;;;;;6036007;23;20526;-78
2023/03/30 01:23:51;;;;;;;6.97;1.92;;;;;;;;;;6037842;23;20024;-81
2023/03/30 01:26:19;;;;;;;12.98;1.67;;;;;;;;;;5992076;23;20033;-81
2023/03/30 01:29:05;;;;;;;11.88;2.38;;;;;;;;;;6038724;23;20028;-81
2023/03/30 01:32:00;;;;;;;17.45;3.92;;;;;;;;;;5967899;23;20031;-79
2023/03/30 01:34:33;;;;;;;8.40;1.85;;;;;;;;;;6037105;23;20518;-84
2023/03/30 01:37:03;;;;;;;10.27;2.22;;;;;;;;;;6035528;23;20023;-74
2023/03/30 01:39:46;;;;;;;8.48;1.98;;;;;;;;;;6037078;23;20520;-79
2023/03/30 01:42:23;;;;;;;8.77;2.17;;;;;;;;;;6037130;23;20031;-79
2023/03/30 01:44:50;;;;;;;7.43;1.95;;;;;;;;;;5967287;23;20031;-79
2023/03/30 01:47:18;;;;;;;9.65;3.05;;;;;;;;;;6042322;23;20034;-80
2023/03/30 01:49:51;;;;;;;9.98;2.05;;;;;;;;;;6023839;23;20023;-83
2023/03/30 01:52:27;;;;;;;10.05;1.98;;;;;;;;;;6062180;23;20071;-79
2023/03/30 01:54:59;;;;;;;13.30;2.72;;;;;;;;;;5993179;23;20023;-78
2023/03/30 01:57:35;;;;;;;11.32;2.55;;;;;;;;;;5991348;23;20084;-79
2023/03/30 02:00:13;;;;;;;10.70;2.17;;;;;;;;;;5991603;23;20031;-82
2023/03/30 02:02:45;;;;;;;8.95;2.00;;;;;;;;;;5992504;23;20019;-81
2023/03/30 02:05:14;;;;;;;11.68;2.50;;;;;;;;;;5989983;23;20082;-81
2023/03/30 02:07:41;;;;;;;14.85;3.58;;;;;;;;;;6010293;23;20059;-80
2023/03/30 02:10:08;;;;;;;9.85;1.95;;;;;;;;;;5985592;23;20027;-80
2023/03/30 02:12:35;;;;;;;7.55;2.13;;;;;;;;;;6009273;23;20065;-80
2023/03/30 02:15:07;;;;;;;14.02;1.98;;;;;;;;;;5989477;23;20027;-83
2023/03/30 02:17:36;;;;;;;8.25;2.10;;;;;;;;;;5986424;23;20037;-80
2023/03/30 02:20:07;;;;;;;14.23;2.15;;;;;;;;;;5983551;23;20050;-81
2023/03/30 02:22:33;;;;;;;15.52;2.20;;;;;;;;;;5966682;23;20462;-81
2023/03/30 02:25:01;;;;;;;14.55;2.90;;;;;;;;;;5964868;23;20033;-79
2023/03/30 02:27:28;;;;;;;8.13;2.03;;;;;;;;;;5965669;23;20026;-79
2023/03/30 02:29:55;;;;;;;12.85;2.22;;;;;;;;;;5967215;23;20031;-79
2023/03/30 02:32:24;;;;;;;10.27;1.98;;;;;;;;;;5966764;23;20038;-80
2023/03/30 02:35:10;;;;;;;12.10;2.42;;;;;;;;;;5967004;23;20090;-80
2023/03/30 02:37:45;;;;;;;13.60;2.65;;;;;;;;;;6037119;23;20027;-79
2023/03/30 02:40:37;;;;;;;9.35;1.70;;;;;;;;;;6039972;23;20468;-79
2023/03/30 02:43:31;;;;;;;13.48;2.53;;;;;;;;;;6041267;23;20019;-81
2023/03/30 02:46:08;;;;;;;15.52;2.30;;;;;;;;;;5972502;23;20023;-80
2023/03/30 02:49:00;;;;;;;13.98;3.40;;;;;;;;;;6036610;23;20544;-79
2023/03/30 02:51:27;;;;;;;8.75;2.55;;;;;;;;;;6038539;23;20023;-80
2023/03/30 02:54:05;;;;;;;9.43;2.40;;;;;;;;;;6039035;23;20116;-80
2023/03/30 02:56:36;;;;;;;11.15;2.72;;;;;;;;;;6015392;23;20110;-81
2023/03/30 02:59:07;;;;;;;11.00;2.40;;;;;;;;;;5968658;23;20406;-78
2023/03/30 03:02:14;;;;;;;7.60;1.90;;;;;;;;;;5966428;23;20374;-78
2023/03/30 03:04:42;;;;;;;12.65;2.70;;;;;;;;;;5974299;23;20051;-77
2023/03/30 03:07:11;;;;;;;16.98;2.88;;;;;;;;;;5966882;23;20474;-77
2023/03/30 03:09:37;;;;;;;9.02;2.50;;;;;;;;;;5966616;23;20350;-78
2023/03/30 03:12:04;;;;;;;14.13;3.00;;;;;;;;;;5989572;23;20038;-77
2023/03/30 03:14:31;;;;;;;13.23;2.63;;;;;;;;;;5966918;23;20046;-79
2023/03/30 03:16:58;;;;;;;10.80;2.35;;;;;;;;;;5965818;23;20027;-78
2023/03/30 03:19:25;;;;;;;12.07;2.72;;;;;;;;;;5966483;23;20470;-79
2023/03/30 03:21:52;;;;;;;15.18;3.05;;;;;;;;;;5966352;23;20492;-79
2023/03/30 03:24:18;;;;;;;12.23;2.42;;;;;;;;;;5966631;23;20023;-78
2023/03/30 03:26:45;;;;;;;12.48;2.42;;;;;;;;;;5990079;23;20033;-78
2023/03/30 03:29:12;;;;;;;14.63;2.63;;;;;;;;;;5988735;23;20023;-78
2023/03/30 03:31:39;;;;;;;9.30;2.55;;;;;;;;;;5988608;23;20023;-78
2023/03/30 03:34:05;;;;;;;15.40;3.03;;;;;;;;;;5989809;23;20106;-78
2023/03/30 03:36:32;;;;;;;10.73;2.28;;;;;;;;;;5989560;23;20027;-78
2023/03/30 03:38:59;;;;;;;12.35;2.85;;;;;;;;;;5990191;23;20070;-79
2023/03/30 03:41:26;;;;;;;12.88;3.25;;;;;;;;;;6015467;23;20031;-78
2023/03/30 03:43:52;;;;;;;9.65;2.55;;;;;;;;;;5989731;23;20427;-79
2023/03/30 03:46:19;;;;;;;16.95;3.40;;;;;;;;;;5989313;23;20023;-80
2023/03/30 03:48:46;;;;;;;11.52;2.75;;;;;;;;;;5965895;23;20031;-81
2023/03/30 03:51:13;;;;;;;9.48;2.88;;;;;;;;;;5966821;23;20474;-79
2023/03/30 03:53:40;;;;;;;11.13;2.75;;;;;;;;;;5990280;23;20462;-80
2023/03/30 03:56:07;;;;;;;11.35;2.72;;;;;;;;;;5967624;23;20464;-80
2023/03/30 03:58:34;;;;;;;8.20;2.42;;;;;;;;;;5966860;23;20027;-79
2023/03/30 04:01:01;;;;;;;15.18;3.38;;;;;;;;;;5967441;23;20034;-80
2023/03/30 04:03:29;;;;;;;10.88;2.35;;;;;;;;;;5967185;23;20091;-79
2023/03/30 04:06:01;;;;;;;11.82;2.50;;;;;;;;;;5989924;23;20023;-79
2023/03/30 04:08:27;;;;;;;13.52;3.35;;;;;;;;;;5967323;23;20024;-79
2023/03/30 04:10:55;;;;;;;10.18;3.33;;;;;;;;;;5967333;23;20019;-79
2023/03/30 04:13:21;;;;;;;12.38;3.00;;;;;;;;;;5967150;23;20038;-79
2023/03/30 04:15:48;;;;;;;11.38;2.75;;;;;;;;;;5967098;23;20353;-81
2023/03/30 04:18:15;;;;;;;14.95;4.20;;;;;;;;;;5990326;23;20030;-79
2023/03/30 04:20:41;;;;;;;16.85;3.80;;;;;;;;;;5967522;23;20027;-80
2023/03/30 04:23:08;;;;;;;10.10;3.45;;;;;;;;;;5990351;23;20031;-80
2023/03/30 04:25:35;;;;;;;12.98;3.28;;;;;;;;;;5966675;23;20027;-79
2023/03/30 04:28:03;;;;;;;12.65;2.47;;;;;;;;;;5991535;23;20031;-79
2023/03/30 04:30:31;;;;;;;12.63;2.35;;;;;;;;;;5970550;23;20026;-79
2023/03/30 04:33:04;;;;;;;12.70;3.72;;;;;;;;;;5970882;23;20030;-79
2023/03/30 04:35:31;;;;;;;10.82;2.90;;;;;;;;;;5968517;23;20026;-79
2023/03/30 04:37:59;;;;;;;13.32;2.88;;;;;;;;;;5969821;23;20027;-79
2023/03/30 04:40:26;;;;;;;12.27;3.08;;;;;;;;;;5971498;23;20041;-80
2023/03/30 04:42:53;;;;;;;11.60;2.58;;;;;;;;;;5992572;23;20019;-80
2023/03/30 04:45:20;;;;;;;11.48;2.80;;;;;;;;;;5969696;23;20024;-80
2023/03/30 04:47:47;;;;;;;19.65;4.20;;;;;;;;;;5968249;23;20027;-81
2023/03/30 04:50:14;;;;;;;11.52;2.97;;;;;;;;;;5969383;23;20069;-79
2023/03/30 04:52:40;;;;;;;16.80;5.32;;;;;;;;;;5968178;23;20030;-80
2023/03/30 04:55:08;;;;;;;9.30;2.45;;;;;;;;;;5967407;23;20023;-79
2023/03/30 04:57:35;;;;;;;10.23;2.55;;;;;;;;;;5991449;23;20031;-82
2023/03/30 05:00:08;;;;;;;16.17;3.53;;;;;;;;;;5992117;23;20023;-81
2023/03/30 05:02:35;;;;;;;18.48;4.43;;;;;;;;;;5970674;23;20032;-81
2023/03/30 05:05:02;;;;;;;16.15;3.10;;;;;;;;;;5993967;23;20462;-81
2023/03/30 05:07:29;;;;;;;13.48;2.58;;;;;;;;;;5995148;23;20023;-82
2023/03/30 05:09:56;;;;;;;11.80;2.92;;;;;;;;;;5969275;23;20423;-82
2023/03/30 05:12:23;;;;;;;18.27;5.45;;;;;;;;;;5997984;23;20031;-81
2023/03/30 05:14:50;;;;;;;14.98;3.53;;;;;;;;;;5982837;23;20020;-84
2023/03/30 05:17:16;;;;;;;13.05;3.70;;;;;;;;;;5975096;23;20046;-85
2023/03/30 05:19:43;;;;;;;16.70;2.80;;;;;;;;;;5994724;23;20023;-82
2023/03/30 05:22:10;;;;;;;12.05;2.67;;;;;;;;;;5994179;23;20027;-83
2023/03/30 05:24:37;;;;;;;8.77;3.08;;;;;;;;;;5971572;23;20366;-82
2023/03/30 05:27:05;;;;;;;15.25;3.10;;;;;;;;;;5969991;23;20023;-82
2023/03/30 05:29:32;;;;;;;10.77;2.60;;;;;;;;;;5970994;23;20340;-82
2023/03/30 05:31:59;;;;;;;16.98;4.00;;;;;;;;;;5971532;23;20024;-83
2023/03/30 05:34:27;;;;;;;16.75;4.38;;;;;;;;;;5971074;23;20042;-83
2023/03/30 05:36:54;;;;;;;14.13;2.83;;;;;;;;;;5967430;23;20477;-79
2023/03/30 05:39:22;;;;;;;12.38;2.80;;;;;;;;;;5989949;23;20034;-79
2023/03/30 05:41:49;;;;;;;10.90;3.38;;;;;;;;;;5990304;23;20682;-80
2023/03/30 05:44:17;;;;;;;16.90;3.22;;;;;;;;;;5989627;23;20026;-79
2023/03/30 05:46:47;;;;;;;12.10;2.97;;;;;;;;;;5970732;23;20090;-79
2023/03/30 05:49:14;;;;;;;12.80;2.65;;;;;;;;;;5967180;23;20085;-80
2023/03/30 05:51:41;;;;;;;14.75;2.75;;;;;;;;;;5967571;23;20098;-80
2023/03/30 05:54:12;;;;;;;13.13;3.40;;;;;;;;;;5992123;23;20065;-80
2023/03/30 05:56:41;;;;;;;15.00;2.92;;;;;;;;;;5971264;23;20398;-80
2023/03/30 05:59:09;;;;;;;16.95;4.43;;;;;;;;;;5969065;23;20094;-80
2023/03/30 06:01:36;;;;;;;11.15;2.20;;;;;;;;;;5968663;23;20023;-80
2023/03/30 06:04:03;;;;;;;8.68;3.13;;;;;;;;;;5970815;23;20067;-80
2023/03/30 06:06:31;;;;;;;11.20;2.88;;;;;;;;;;5970198;23;20400;-79
2023/03/30 06:08:58;;;;;;;15.90;3.75;;;;;;;;;;5993347;23;20027;-81
2023/03/30 06:11:24;;;;;;;13.43;3.72;;;;;;;;;;5992861;23;20078;-76
2023/03/30 06:13:51;;;;;;;13.25;3.22;;;;;;;;;;5969661;23;20027;-82
2023/03/30 06:16:18;;;;;;;21.42;4.47;;;;;;;;;;5972200;23;20030;-80
2023/03/30 06:18:44;;;;;;;13.25;3.00;;;;;;;;;;5973974;23;20097;-76
2023/03/30 06:21:11;;;;;;;13.95;3.53;;;;;;;;;;5965266;23;20034;-73
2023/03/30 06:23:40;;;;;;;14.77;2.97;;;;;;;;;;5993237;23;20027;-78
2023/03/30 06:26:06;;;;;;;9.50;2.63;;;;;;;;;;5972189;23;20050;-78
2023/03/30 06:28:33;;;;;;;18.73;3.00;;;;;;;;;;5994797;23;20027;-81
2023/03/30 06:31:01;;;;;;;13.02;3.05;;;;;;;;;;5975169;23;20403;-80
2023/03/30 06:33:29;;;;;;;12.30;3.15;;;;;;;;;;5975003;23;20134;-79
2023/03/30 06:35:56;;;;;;;14.60;3.42;;;;;;;;;;5972273;23;20019;-79
2023/03/30 06:38:23;;;;;;;13.95;2.80;;;;;;;;;;5994678;23;20050;-79
2023/03/30 06:40:50;;;;;;;13.57;3.78;;;;;;;;;;5971337;23;20046;-78
2023/03/30 06:43:24;;;;;;;11.55;3.22;;;;;;;;;;5974101;23;20063;-79
2023/03/30 06:45:52;;;;;;;16.42;4.10;;;;;;;;;;5973818;23;20027;-78
2023/03/30 06:48:22;;;;;;;17.67;4.25;;;;;;;;;;5972991;23;20546;-79
2023/03/30 06:50:53;;;;;;;16.60;5.00;;;;;;;;;;5973857;23;20092;-78
2023/03/30 06:53:21;;;;;;;18.58;4.25;;;;;;;;;;5972955;23;20027;-79
2023/03/30 06:55:55;;;;;;;18.77;4.72;;;;;;;;;;5971374;23;20026;-79
2023/03/30 06:58:23;;;;;;;17.25;3.65;;;;;;;;;;5971571;23;20074;-80
2023/03/30 07:00:50;;;;;;;14.13;3.10;;;;;;;;;;5969996;23;20024;-80
2023/03/30 07:03:17;;;;;;;13.57;3.10;;;;;;;;;;5969101;23;20075;-79
2023/03/30 07:05:51;;;;;;;14.52;3.03;;;;;;;;;;5968120;23;20458;-78
2023/03/30 07:08:19;;;;;;;15.27;2.85;;;;;;;;;;5968105;23;20063;-79
2023/03/30 07:10:46;;;;;;;16.77;4.35;;;;;;;;;;5969244;23;20030;-79
2023/03/30 07:13:15;;;;;;;15.13;3.75;;;;;;;;;;5966164;23;20019;-79
2023/03/30 07:15:43;;;;;;;13.60;3.83;;;;;;;;;;5967347;23;20031;-77
2023/03/30 07:18:10;;;;;;;15.98;3.35;;;;;;;;;;5966513;23;20110;-78
2023/03/30 07:20:37;;;;;;;9.25;3.25;;;;;;;;;;5967350;23;20522;-79
2023/03/30 07:23:04;;;;;;;19.17;3.30;;;;;;;;;;5967155;23;20083;-79
2023/03/30 07:25:31;;;;;;;11.52;2.70;;;;;;;;;;5966433;23;20023;-78
2023/03/30 07:27:58;;;;;;;15.10;3.55;;;;;;;;;;5968573;23;20034;-78
2023/03/30 07:30:25;;;;;;;11.25;3.78;;;;;;;;;;5967152;23;20098;-77
2023/03/30 07:32:51;;;;;;;13.63;3.63;;;;;;;;;;5968535;23;20027;-78
2023/03/30 07:35:21;;;;;;;14.85;4.35;;;;;;;;;;5969465;23;20439;-78
2023/03/30 07:37:47;;;;;;;14.70;3.97;;;;;;;;;;5989952;23;20027;-77
2023/03/30 07:40:17;;;;;;;15.18;4.32;;;;;;;;;;5966485;23;20040;-77
2023/03/30 07:42:44;;;;;;;16.63;4.10;;;;;;;;;;5967258;23;20350;-76
2023/03/30 07:45:11;;;;;;;10.55;3.83;;;;;;;;;;5985369;23;20027;-75
2023/03/30 07:47:41;;;;;;;11.27;3.47;;;;;;;;;;5962748;23;20038;-76
2023/03/30 07:50:09;;;;;;;15.27;3.88;;;;;;;;;;5965842;23;20034;-76
2023/03/30 07:52:36;;;;;;;13.25;4.00;;;;;;;;;;5965962;23;20066;-77
2023/03/30 07:55:03;;;;;;;14.63;4.03;;;;;;;;;;5965888;23;20019;-76
2023/03/30 07:57:30;;;;;;;19.65;4.35;;;;;;;;;;5964141;23;20019;-76
2023/03/30 07:59:57;;;;;;;16.58;3.50;;;;;;;;;;5963189;23;20102;-76
2023/03/30 08:02:24;;;;;;;12.38;4.35;;;;;;;;;;5987227;23;20023;-76
2023/03/30 08:04:52;;;;;;;8.52;3.45;;;;;;;;;;5964875;23;20490;-76
2023/03/30 08:07:19;;;;;;;13.52;3.70;;;;;;;;;;5965352;23;20569;-76
2023/03/30 08:09:45;;;;;;;14.40;4.68;;;;;;;;;;5988083;23;20061;-76
2023/03/30 08:12:12;;;;;;;18.48;4.53;;;;;;;;;;5964631;23;20042;-76
2023/03/30 08:14:39;;;;;;;10.80;4.65;;;;;;;;;;5964727;23;20019;-76
2023/03/30 08:17:06;;;;;;;12.00;5.10;;;;;;;;;;5988234;23;20038;-76
2023/03/30 08:19:33;;;;;;;11.75;5.43;;;;;;;;;;5987883;23;20354;-76
2023/03/30 08:22:00;;;;;;;18.73;6.05;;;;;;;;;;5987633;23;20362;-76
2023/03/30 08:24:27;;;;;;;25.85;6.25;;;;;;;;;;5987751;23;20407;-76
2023/03/30 08:26:54;;;;;;;10.02;5.05;;;;;;;;;;5964702;23;20031;-76
2023/03/30 08:29:21;;;;;;;13.40;5.20;;;;;;;;;;6011456;23;20063;-76
2023/03/30 08:31:50;;;;;;;10.57;4.40;;;;;;;;;;6010734;23;20470;-76
2023/03/30 08:34:17;;;;;;;17.63;4.57;;;;;;;;;;5965638;23;20374;-76
2023/03/30 08:36:43;;;;;;;10.27;3.85;;;;;;;;;;5965768;23;20034;-76
2023/03/30 08:39:10;;;;;;;13.07;3.90;;;;;;;;;;6006292;23;20030;-75
2023/03/30 08:41:46;;;;;;;7.63;3.70;;;;;;;;;;6017748;23;20052;-75
2023/03/30 08:44:36;;;;;;;9.65;3.60;;;;;;;;;;6041475;23;20014;-75
2023/03/30 08:47:05;;;;;;;9.18;4.20;;;;;;;;;;6017405;23;20064;-77
2023/03/30 08:49:35;;;;;;;8.65;3.63;;;;;;;;;;5993603;23;20015;-75
2023/03/30 08:52:02;;;;;;;12.88;3.38;;;;;;;;;;5991915;23;20450;-76
2023/03/30 08:54:29;;;;;;;9.55;3.45;;;;;;;;;;5992434;23;20109;-75
2023/03/30 08:56:59;;;;;;;10.57;4.00;;;;;;;;;;5991694;23;20010;-76
2023/03/30 08:59:34;;;;;;;10.25;3.38;;;;;;;;;;6061917;23;20019;-78
2023/03/30 09:02:22;;;;;;;8.18;3.35;;;;;;;;;;6061054;23;20048;-77
2023/03/30 09:05:26;;;;;;;14.50;6.47;;;;;;;;;;5990670;23;20152;-77
2023/03/30 09:07:59;;;;;;;7.63;3.40;;;;;;;;;;6012800;23;20030;-78
2023/03/30 09:10:27;;;;;;;8.05;3.40;;;;;;;;;;6057871;23;20062;-77
2023/03/30 09:12:56;;;;;;;12.68;4.22;;;;;;;;;;5987668;23;20102;-77
2023/03/30 09:15:38;;;;;;;12.43;3.47;;;;;;;;;;5988174;23;20094;-76
2023/03/30 09:18:18;;;;;;;10.13;3.92;;;;;;;;;;6033545;23;20024;-77
2023/03/30 09:20:46;;;;;;;10.65;4.38;;;;;;;;;;6029348;23;20046;-77
2023/03/30 09:23:15;;;;;;;12.18;4.50;;;;;;;;;;5967568;23;20027;-77
2023/03/30 09:25:48;;;;;;;9.27;3.90;;;;;;;;;;5966100;23;20034;-77
2023/03/30 09:28:22;;;;;;;8.07;4.07;;;;;;;;;;6012491;23;20082;-77
2023/03/30 09:31:11;;;;;;;7.75;3.28;;;;;;;;;;5967147;23;20035;-77
2023/03/30 09:34:02;;;;;;;9.77;3.63;;;;;;;;;;5981518;23;20049;-77
2023/03/30 09:37:02;;;;;;;7.55;3.97;;;;;;;;;;5970119;23;20091;-76
2023/03/30 09:39:29;;;;;;;6.05;3.15;;;;;;;;;;5961294;23;20034;-76
2023/03/30 09:42:02;;;;;;;8.10;3.75;;;;;;;;;;5998028;23;20109;-77
2023/03/30 09:44:49;;;;;;;4.70;2.10;;;;;;;;;;6062415;23;20441;-77
2023/03/30 09:47:22;;;;;;;5.57;1.83;;;;;;;;;;5990959;23;20042;-76
2023/03/30 09:50:00;;;;;;;6.60;2.30;;;;;;;;;;6060049;23;20031;-77
2023/03/30 09:52:28;;;;;;;7.60;2.40;;;;;;;;;;5989943;23;20440;-77
2023/03/30 09:54:56;;;;;;;7.28;2.58;;;;;;;;;;6036019;23;20028;-77
2023/03/30 09:57:31;;;;;;;5.05;2.83;;;;;;;;;;5989248;23;20031;-77
2023/03/30 09:59:59;;;;;;;4.78;2.28;;;;;;;;;;5989172;23;20030;-76
2023/03/30 10:02:29;;;;;;;6.28;1.83;;;;;;;;;;5988892;23;20027;-76
2023/03/30 10:04:59;;;;;;;5.32;1.80;;;;;;;;;;5990420;23;20038;-76
2023/03/30 10:07:35;;;;;;;3.55;1.63;;;;;;;;;;6013321;23;20027;-76
2023/03/30 10:10:30;;;;;;;8.13;2.72;;;;;;;;;;5989953;23;20038;-75
2023/03/30 10:13:03;;;;;;;3.85;2.13;;;;;;;;;;6015365;23;20138;-76
2023/03/30 10:15:30;;;;;;;5.53;2.30;;;;;;;;;;6012390;23;20061;-76
2023/03/30 10:18:16;;;;;;;7.40;2.00;;;;;;;;;;5989226;23;20031;-75
2023/03/30 10:20:50;;;;;;;5.75;2.30;;;;;;;;;;6012315;23;20027;-76
2023/03/30 10:23:18;;;;;;;4.85;1.90;;;;;;;;;;6013090;23;20031;-76
2023/03/30 10:25:48;;;;;;;5.30;2.90;;;;;;;;;;5987761;23;20311;-76
2023/03/30 10:28:25;;;;;;;4.32;2.03;;;;;;;;;;6011608;23;20031;-76
2023/03/30 10:30:55;;;;;;;5.00;3.00;;;;;;;;;;6013678;23;20037;-76
2023/03/30 10:33:22;;;;;;;4.68;2.80;;;;;;;;;;5988632;23;20114;-77
2023/03/30 10:35:52;;;;;;;7.13;2.60;;;;;;;;;;6011410;23;20034;-76
2023/03/30 10:38:19;;;;;;;4.85;1.90;;;;;;;;;;6012800;23;20027;-76
2023/03/30 10:40:46;;;;;;;6.63;2.50;;;;;;;;;;5988341;23;20480;-76
2023/03/30 10:43:14;;;;;;;10.82;2.95;;;;;;;;;;5988925;23;20023;-77
2023/03/30 10:45:47;;;;;;;4.60;2.50;;;;;;;;;;6012815;23;20031;-76
2023/03/30 10:48:15;;;;;;;;;;;;;;;;;;6012830;23;20027;-77
2023/03/30 10:50:48;;;;;;;3.08;1.90;;;;;;;;;;6058996;23;19973;-76
2023/03/30 10:53:25;;;;;;;7.40;2.40;;;;;;;;;;6060471;23;20045;-76
2023/03/30 10:56:25;;;;;;;7.07;3.05;;;;;;;;;;6012001;23;20035;-76
2023/03/30 10:58:58;;;;;;;6.50;2.50;;;;;;;;;;6034022;23;20031;-76
2023/03/30 11:01:41;;;;;;;5.03;2.42;;;;;;;;;;6035155;23;20035;-76
2023/03/30 11:04:42;;;;;;;8.23;3.38;;;;;;;;;;6058692;23;20023;-76
2023/03/30 11:07:29;;;;;;;5.13;2.70;;;;;;;;;;6007881;23;20019;-78
2023/03/30 11:09:59;;;;;;;6.30;2.50;;;;;;;;;;5989776;23;20481;-76
2023/03/30 11:12:28;;;;;;;4.25;2.13;;;;;;;;;;5989404;23;20031;-79
2023/03/30 11:15:02;;;;;;;5.63;2.10;;;;;;;;;;5992099;23;20027;-77
2023/03/30 11:17:33;;;;;;;;;;;;;;;;;;5989907;23;20500;-77
2023/03/30 11:20:34;;;;;;;4.43;1.88;;;;;;;;;;6012188;23;19953;-77
2023/03/30 11:23:03;;;;;;;2.78;2.00;;;;;;;;;;5973701;23;20034;-78
2023/03/30 11:25:52;;;;;;;4.10;1.90;;;;;;;;;;6015918;23;20031;-78
2023/03/30 11:28:44;;;;;;;4.97;2.13;;;;;;;;;;6016715;23;20358;-78
2023/03/30 11:31:17;;;;;;;4.72;1.63;;;;;;;;;;6039218;23;20497;-77
2023/03/30 11:33:47;;;;;;;5.93;3.05;;;;;;;;;;6012012;23;20031;-77
2023/03/30 11:36:37;;;;;;;4.90;1.65;;;;;;;;;;6012122;23;20023;-76
2023/03/30 11:39:08;;;;;;;3.28;1.88;;;;;;;;;;6003375;23;20023;-76
2023/03/30 11:41:57;;;;;;;5.80;2.53;;;;;;;;;;6017032;23;20106;-77
2023/03/30 11:44:24;;;;;;;4.68;2.38;;;;;;;;;;5990138;23;20046;-77
2023/03/30 11:47:04;;;;;;;6.95;4.32;;;;;;;;;;5988081;23;20023;-76
2023/03/30 11:49:37;;;;;;;7.75;2.83;;;;;;;;;;6035357;23;20057;-76
2023/03/30 11:52:04;;;;;;;2.53;1.80;;;;;;;;;;6059475;23;20023;-77
2023/03/30 11:55:03;;;;;;;5.97;2.13;;;;;;;;;;6059364;23;20529;-77
2023/03/30 11:57:40;;;;;;;6.00;2.22;;;;;;;;;;6004546;23;20031;-77
2023/03/30 12:00:48;;;;;;;3.95;1.85;;;;;;;;;;6058728;23;20085;-76
2023/03/30 12:03:18;;;;;;;4.70;1.98;;;;;;;;;;6034260;23;20024;-76
2023/03/30 12:05:47;;;;;;;4.03;1.70;;;;;;;;;;6058991;23;20030;-76
2023/03/30 12:08:29;;;;;;;4.13;1.60;;;;;;;;;;6014299;23;20030;-77
2023/03/30 12:11:11;;;;;;;3.90;1.75;;;;;;;;;;6058482;23;20557;-77
2023/03/30 12:13:38;;;;;;;5.07;2.35;;;;;;;;;;5990576;23;20023;-77
2023/03/30 12:16:38;;;;;;;5.25;1.75;;;;;;;;;;5993278;23;20059;-76
2023/03/30 12:19:14;;;;;;;6.13;2.15;;;;;;;;;;5991754;23;20542;-76
2023/03/30 12:22:00;;;;;;;7.35;2.17;;;;;;;;;;5988039;23;20033;-77
2023/03/30 12:24:28;;;;;;;3.28;1.67;;;;;;;;;;5990069;23;20514;-76
2023/03/30 12:26:55;;;;;;;5.75;2.95;;;;;;;;;;6011216;23;20023;-76
2023/03/30 12:29:51;;;;;;;7.95;2.05;;;;;;;;;;6013049;23;20296;-77
2023/03/30 12:32:28;;;;;;;4.35;2.13;;;;;;;;;;5079087;27;20407;-75
2023/03/30 12:34:58;;;;;;;4.53;2.03;;;;;;;;;;5041349;28;20413;-78
2023/03/30 12:37:34;;;;;;;4.25;1.75;;;;;;;;;;5042062;28;20053;-78
2023/03/30 12:40:32;;;;;;;3.60;1.70;;;;;;;;;;5040856;28;20483;-79
2023/03/30 12:43:15;;;;;;;3.80;1.70;;;;;;;;;;5033603;28;20445;-79
2023/03/30 12:46:00;;;;;;;2.38;1.40;;;;;;;;;;5040793;28;20060;-79
2023/03/30 12:48:50;;;;;;;5.43;2.60;;;;;;;;;;5011794;28;20054;-79
2023/03/30 12:51:38;;;;;;;6.07;2.08;;;;;;;;;;5052709;28;20053;-79
2023/03/30 12:54:30;;;;;;;7.20;2.08;;;;;;;;;;5058338;28;20068;-81
2023/03/30 12:57:28;;;;;;;3.83;1.80;;;;;;;;;;5035432;28;20454;-79
2023/03/30 13:00:06;;;;;;;6.00;1.90;;;;;;;;;;5039255;28;20060;-79
2023/03/30 13:02:51;;;;;;;7.93;2.05;;;;;;;;;;5034384;28;20522;-78
2023/03/30 13:05:26;;;;;;;8.40;2.00;;;;;;;;;;5042678;28;20473;-79
2023/03/30 13:07:53;;;;;;;7.15;1.55;;;;;;;;;;5059226;28;20057;-80
2023/03/30 13:10:28;;;;;;;5.13;2.20;;;;;;;;;;5043184;28;20057;-81
2023/03/30 13:12:56;;;;;;;4.97;2.20;;;;;;;;;;5044327;28;20421;-81
2023/03/30 13:15:41;;;;;;;4.93;1.80;;;;;;;;;;5043641;28;20054;-76
2023/03/30 13:18:08;;;;;;;3.45;1.50;;;;;;;;;;5041901;28;20054;-79
2023/03/30 13:20:36;;;;;;;4.45;1.60;;;;;;;;;;5042943;28;20058;-79
2023/03/30 13:23:12;;;;;;;4.28;1.65;;;;;;;;;;5042007;28;20050;-79
2023/03/30 13:25:48;;;;;;;5.88;1.52;;;;;;;;;;5042865;28;20093;-79
2023/03/30 13:28:30;;;;;;;4.20;1.30;;;;;;;;;;5058318;28;20050;-79
2023/03/30 13:31:00;;;;;;;2.95;1.17;;;;;;;;;;5042187;28;20053;-82
2023/03/30 13:33:27;;;;;;;3.60;1.27;;;;;;;;;;5042439;28;20053;-79
2023/03/30 13:36:13;;;;;;;2.60;1.05;;;;;;;;;;5022574;28;20057;-80
2023/03/30 13:39:02;;;;;;;4.25;1.50;;;;;;;;;;5021109;28;20065;-77
2023/03/30 13:41:29;;;;;;;5.90;1.30;;;;;;;;;;5020860;28;20050;-82
2023/03/30 13:44:11;;;;;;;5.78;1.80;;;;;;;;;;5009554;28;20050;-82
2023/03/30 13:47:07;;;;;;;4.53;1.40;;;;;;;;;;5008935;28;20046;-81
2023/03/30 13:50:15;;;;;;;6.47;1.67;;;;;;;;;;4973605;28;20056;-80
2023/03/30 13:52:44;;;;;;;3.95;1.45;;;;;;;;;;5013936;28;20060;-80
2023/03/30 13:55:30;;;;;;;4.22;1.63;;;;;;;;;;5031707;28;20049;-79
2023/03/30 13:58:03;;;;;;;4.63;1.35;;;;;;;;;;4999651;28;20054;-81
2023/03/30 14:00:47;;;;;;;5.95;1.90;;;;;;;;;;5008773;28;20120;-81
2023/03/30 14:03:42;;;;;;;9.93;2.05;;;;;;;;;;5006044;28;20058;-81
2023/03/30 14:06:12;;;;;;;3.65;1.88;;;;;;;;;;5007723;28;20093;-81
2023/03/30 14:08:43;;;;;;;3.85;1.65;;;;;;;;;;5009713;28;20141;-82
2023/03/30 14:11:17;;;;;;;5.78;1.58;;;;;;;;;;5007517;28;20181;-80
2023/03/30 14:13:46;;;;;;;4.05;1.25;;;;;;;;;;5028602;28;20517;-81
2023/03/30 14:16:21;;;;;;;3.83;1.52;;;;;;;;;;5006548;28;20058;-81
2023/03/30 14:18:48;;;;;;;2.15;1.30;;;;;;;;;;5009820;28;20046;-81
2023/03/30 14:21:18;;;;;;;4.22;1.23;;;;;;;;;;5009391;28;20089;-82
2023/03/30 14:23:50;;;;;;;2.95;1.70;;;;;;;;;;4960937;28;20051;-79
2023/03/30 14:26:24;;;;;;;3.85;1.85;;;;;;;;;;5024857;28;20081;-82
2023/03/30 14:29:05;;;;;;;3.90;1.80;;;;;;;;;;5008401;28;20157;-80
2023/03/30 14:31:41;;;;;;;5.63;1.88;;;;;;;;;;5008320;28;20562;-81
2023/03/30 14:34:28;;;;;;;4.65;1.60;;;;;;;;;;5028499;28;20133;-80
2023/03/30 14:37:00;;;;;;;3.83;1.42;;;;;;;;;;5027338;28;20058;-80
2023/03/30 14:39:27;;;;;;;4.22;2.10;;;;;;;;;;5027009;28;20426;-79
2023/03/30 14:41:55;;;;;;;3.95;1.65;;;;;;;;;;5026361;28;20052;-79
2023/03/30 14:44:22;;;;;;;4.50;1.70;;;;;;;;;;5026562;28;20099;-81
2023/03/30 14:46:50;;;;;;;2.83;1.60;;;;;;;;;;5026743;28;20059;-79
2023/03/30 14:49:19;;;;;;;3.35;1.15;;;;;;;;;;5026458;28;20061;-79
2023/03/30 14:51:51;;;;;;;3.90;1.10;;;;;;;;;;5009654;28;20045;-79
2023/03/30 14:54:20;;;;;;;2.10;1.20;;;;;;;;;;5024635;28;20050;-78
2023/03/30 14:56:56;;;;;;;6.65;1.45;;;;;;;;;;5025837;28;20050;-80
2023/03/30 14:59:24;;;;;;;3.22;1.35;;;;;;;;;;5025838;28;20046;-78
2023/03/30 15:01:51;;;;;;;4.43;1.20;;;;;;;;;;5025075;28;20137;-75
2023/03/30 15:04:18;;;;;;;3.05;0.98;;;;;;;;;;5025466;28;20046;-77
2023/03/30 15:06:46;;;;;;;1.85;0.63;;;;;;;;;;5025854;28;20057;-76
2023/03/30 15:09:18;;;;;;;0.85;0.50;;;;;;;;;;5025722;28;20054;-76